createdAt,value
2018-07-19T00:00:55.610Z,0.00
2018-07-19T00:01:55.797Z,0.00
2018-07-19T00:02:56.014Z,0.00
2018-07-19T00:03:56.225Z,0.00
2018-07-19T00:04:56.435Z,0.00
2018-07-19T00:05:56.635Z,0.00
2018-07-19T00:06:56.819Z,0.00
2018-07-19T00:07:57.009Z,0.00
2018-07-19T00:08:57.195Z,0.00
2018-07-19T00:09:57.387Z,0.00
2018-07-19T00:10:57.597Z,0.00
2018-07-19T00:11:57.816Z,0.00
2018-07-19T00:12:58.014Z,0.00
2018-07-19T00:13:58.202Z,0.00
2018-07-19T00:14:58.406Z,0.00
2018-07-19T00:15:58.598Z,0.00
2018-07-19T00:16:58.795Z,0.00
2018-07-19T00:17:59.007Z,0.00
2018-07-19T00:18:59.231Z,0.00
2018-07-19T00:19:59.408Z,0.00
2018-07-19T00:20:59.593Z,0.00
2018-07-19T00:21:59.793Z,0.00
2018-07-19T00:23:00.004Z,0.00
2018-07-19T00:24:00.209Z,0.00
2018-07-19T00:25:00.395Z,0.00
2018-07-19T00:26:00.578Z,0.00
2018-07-19T00:27:00.782Z,0.00
2018-07-19T00:28:00.996Z,0.00
2018-07-19T00:29:01.195Z,0.00
2018-07-19T00:30:01.384Z,0.00
2018-07-19T00:31:01.585Z,0.00
2018-07-19T00:32:01.803Z,0.00
2018-07-19T00:33:02.022Z,0.00
2018-07-19T00:34:02.290Z,0.00
2018-07-19T00:35:02.407Z,0.00
2018-07-19T00:36:02.593Z,0.00
2018-07-19T00:37:02.782Z,0.00
2018-07-19T00:38:02.987Z,0.00
2018-07-19T00:39:03.202Z,0.00
2018-07-19T00:40:03.392Z,0.00
2018-07-19T00:41:03.589Z,0.00
2018-07-19T00:42:03.789Z,0.00
2018-07-19T00:43:03.994Z,0.00
2018-07-19T00:44:04.203Z,0.00
2018-07-19T00:45:04.417Z,0.00
2018-07-19T00:46:04.628Z,0.00
2018-07-19T00:47:04.823Z,0.00
2018-07-19T00:48:05.016Z,0.00
2018-07-19T00:49:05.236Z,0.00
2018-07-19T00:50:05.446Z,0.00
2018-07-19T00:51:05.631Z,0.00
2018-07-19T00:52:05.830Z,0.00
2018-07-19T00:53:06.040Z,0.00
2018-07-19T00:54:06.248Z,0.00
2018-07-19T00:55:06.459Z,0.00
2018-07-19T00:56:06.652Z,0.00
2018-07-19T00:57:06.859Z,0.00
2018-07-19T00:58:07.060Z,0.00
2018-07-19T00:59:07.250Z,0.00
2018-07-19T01:00:07.447Z,0.00
2018-07-19T01:01:07.656Z,0.00
2018-07-19T01:02:07.861Z,0.00
2018-07-19T01:03:08.047Z,0.00
2018-07-19T01:04:08.261Z,0.00
2018-07-19T01:05:08.462Z,0.00
2018-07-19T01:06:08.655Z,0.00
2018-07-19T01:07:08.852Z,0.00
2018-07-19T01:08:09.039Z,0.00
2018-07-19T01:09:09.224Z,0.00
2018-07-19T01:10:09.415Z,0.00
2018-07-19T01:11:09.614Z,0.00
2018-07-19T01:12:09.818Z,0.00
2018-07-19T01:13:10.026Z,0.00
2018-07-19T01:14:10.239Z,0.00
2018-07-19T01:15:10.460Z,0.00
2018-07-19T01:16:10.677Z,0.00
2018-07-19T01:17:10.873Z,0.00
2018-07-19T01:18:11.061Z,0.00
2018-07-19T01:19:11.266Z,0.00
2018-07-19T01:20:11.459Z,0.00
2018-07-19T01:21:11.651Z,0.00
2018-07-19T01:22:11.835Z,0.00
2018-07-19T01:23:12.027Z,0.00
2018-07-19T01:24:12.224Z,0.00
2018-07-19T01:25:12.415Z,0.00
2018-07-19T01:26:12.624Z,0.00
2018-07-19T01:27:12.833Z,0.00
2018-07-19T01:28:13.044Z,0.00
2018-07-19T01:29:13.229Z,0.00
2018-07-19T01:30:13.434Z,0.00
2018-07-19T01:31:13.646Z,0.00
2018-07-19T01:32:13.843Z,0.00
2018-07-19T01:33:14.074Z,0.00
2018-07-19T01:34:14.254Z,0.00
2018-07-19T01:35:14.466Z,0.00
2018-07-19T01:36:14.673Z,0.00
2018-07-19T01:37:14.891Z,0.00
2018-07-19T01:38:15.072Z,0.00
2018-07-19T01:39:15.285Z,0.00
2018-07-19T01:40:15.465Z,0.00
2018-07-19T01:41:15.661Z,0.00
2018-07-19T01:42:15.864Z,0.00
2018-07-19T01:43:16.080Z,0.00
2018-07-19T01:44:16.269Z,0.00
2018-07-19T01:45:16.486Z,0.00
2018-07-19T01:46:16.666Z,0.00
2018-07-19T01:47:16.867Z,0.00
2018-07-19T01:48:17.063Z,0.00
2018-07-19T01:49:17.256Z,0.00
2018-07-19T01:50:17.464Z,0.00
2018-07-19T01:51:17.668Z,0.00
2018-07-19T01:52:17.860Z,0.00
2018-07-19T01:53:18.058Z,0.00
2018-07-19T01:54:18.239Z,0.00
2018-07-19T01:55:18.473Z,0.00
2018-07-19T01:56:18.685Z,0.00
2018-07-19T01:57:18.889Z,0.00
2018-07-19T01:58:19.095Z,0.00
2018-07-19T01:59:19.299Z,0.00
2018-07-19T02:00:19.495Z,0.00
2018-07-19T02:01:19.691Z,0.00
2018-07-19T02:02:19.875Z,0.00
2018-07-19T02:03:20.073Z,0.00
2018-07-19T02:04:20.284Z,0.00
2018-07-19T02:05:20.482Z,0.00
2018-07-19T02:06:20.674Z,0.00
2018-07-19T02:07:20.883Z,0.00
2018-07-19T02:08:21.123Z,0.00
2018-07-19T02:09:21.266Z,0.00
2018-07-19T02:10:21.473Z,0.00
2018-07-19T02:11:21.685Z,0.00
2018-07-19T02:12:21.868Z,0.00
2018-07-19T02:13:22.123Z,0.00
2018-07-19T02:14:22.199Z,0.00
2018-07-19T02:15:22.403Z,0.00
2018-07-19T02:16:22.614Z,0.00
2018-07-19T02:17:22.797Z,0.00
2018-07-19T02:18:23.021Z,0.00
2018-07-19T02:19:23.213Z,0.00
2018-07-19T02:20:23.419Z,0.00
2018-07-19T02:21:23.598Z,0.00
2018-07-19T02:22:23.785Z,0.00
2018-07-19T02:23:24.021Z,0.00
2018-07-19T02:24:24.178Z,0.00
2018-07-19T02:25:24.391Z,0.00
2018-07-19T02:26:24.579Z,0.00
2018-07-19T02:27:24.765Z,0.00
2018-07-19T02:28:24.967Z,0.00
2018-07-19T02:29:25.154Z,0.00
2018-07-19T02:30:25.343Z,0.00
2018-07-19T02:31:25.569Z,0.00
2018-07-19T02:32:25.788Z,0.00
2018-07-19T02:33:25.984Z,0.00
2018-07-19T02:34:26.189Z,0.00
2018-07-19T02:35:26.403Z,0.00
2018-07-19T02:36:26.587Z,0.00
2018-07-19T02:37:26.782Z,0.00
2018-07-19T02:38:26.990Z,0.00
2018-07-19T02:39:27.208Z,0.00
2018-07-19T02:40:27.413Z,0.00
2018-07-19T02:41:27.604Z,0.00
2018-07-19T02:42:27.797Z,0.00
2018-07-19T02:43:28.000Z,0.00
2018-07-19T02:44:28.205Z,0.00
2018-07-19T02:45:28.458Z,0.00
2018-07-19T02:46:28.662Z,0.00
2018-07-19T02:47:28.847Z,4.00
2018-07-19T02:48:29.043Z,4.00
2018-07-19T02:49:29.238Z,4.00
2018-07-19T02:50:29.431Z,4.00
2018-07-19T02:51:29.615Z,0.00
2018-07-19T02:52:29.819Z,4.00
2018-07-19T02:53:30.008Z,4.00
2018-07-19T02:54:30.213Z,8.00
2018-07-19T02:55:30.426Z,4.00
2018-07-19T02:56:30.637Z,8.00
2018-07-19T02:57:30.825Z,8.00
2018-07-19T02:58:31.033Z,8.00
2018-07-19T02:59:31.219Z,8.00
2018-07-19T03:00:31.429Z,12.00
2018-07-19T03:01:31.632Z,12.00
2018-07-19T03:02:31.814Z,16.00
2018-07-19T03:03:32.035Z,16.00
2018-07-19T03:04:32.244Z,16.00
2018-07-19T03:05:32.451Z,20.00
2018-07-19T03:06:32.721Z,24.00
2018-07-19T03:07:32.863Z,28.00
2018-07-19T03:08:33.080Z,32.00
2018-07-19T03:09:33.268Z,32.00
2018-07-19T03:10:33.485Z,40.00
2018-07-19T03:11:33.686Z,44.00
2018-07-19T03:12:33.883Z,52.00
2018-07-19T03:13:34.088Z,60.00
2018-07-19T03:14:34.295Z,64.00
2018-07-19T03:15:34.507Z,72.00
2018-07-19T03:16:34.703Z,80.00
2018-07-19T03:17:34.894Z,92.00
2018-07-19T03:18:35.104Z,100.00
2018-07-19T03:19:35.311Z,116.00
2018-07-19T03:20:35.520Z,128.00
2018-07-19T03:21:35.730Z,140.00
2018-07-19T03:22:35.980Z,160.00
2018-07-19T03:23:36.161Z,180.00
2018-07-19T03:24:36.356Z,200.00
2018-07-19T03:25:36.546Z,220.00
2018-07-19T03:26:36.747Z,248.00
2018-07-19T03:27:36.955Z,268.00
2018-07-19T03:28:37.179Z,296.00
2018-07-19T03:29:37.367Z,324.00
2018-07-19T03:30:37.559Z,356.00
2018-07-19T03:31:37.749Z,388.00
2018-07-19T03:32:37.951Z,420.00
2018-07-19T03:33:38.146Z,456.00
2018-07-19T03:34:38.351Z,496.00
2018-07-19T03:35:38.546Z,532.00
2018-07-19T03:36:38.735Z,572.00
2018-07-19T03:37:38.921Z,612.00
2018-07-19T03:38:39.132Z,660.00
2018-07-19T03:39:39.328Z,704.00
2018-07-19T03:40:39.522Z,748.00
2018-07-19T03:41:39.734Z,800.00
2018-07-19T03:42:39.945Z,856.00
2018-07-19T03:43:40.130Z,908.00
2018-07-19T03:44:40.314Z,964.00
2018-07-19T03:45:40.514Z,1024.00
2018-07-19T03:46:40.723Z,1084.00
2018-07-19T03:47:40.948Z,1144.00
2018-07-19T03:48:41.161Z,1208.00
2018-07-19T03:49:41.362Z,1272.00
2018-07-19T03:50:41.570Z,1340.00
2018-07-19T03:51:41.893Z,1408.00
2018-07-19T03:52:41.978Z,1476.00
2018-07-19T03:53:42.195Z,1544.00
2018-07-19T03:54:42.390Z,1616.00
2018-07-19T03:55:42.605Z,1688.00
2018-07-19T03:56:42.813Z,1764.00
2018-07-19T03:57:43.013Z,1840.00
2018-07-19T03:58:43.219Z,1908.00
2018-07-19T03:59:43.410Z,1988.00
2018-07-19T04:00:43.606Z,2064.00
2018-07-19T04:01:43.794Z,2140.00
2018-07-19T04:02:44.106Z,2220.00
2018-07-19T04:03:44.169Z,2300.00
2018-07-19T04:04:44.378Z,2384.00
2018-07-19T04:05:44.582Z,2468.00
2018-07-19T04:06:44.764Z,2552.00
2018-07-19T04:07:44.974Z,2636.00
2018-07-19T04:08:45.173Z,2724.00
2018-07-19T04:09:45.385Z,2812.00
2018-07-19T04:10:45.593Z,2900.00
2018-07-19T04:11:45.783Z,2992.00
2018-07-19T04:12:45.992Z,3080.00
2018-07-19T04:13:46.217Z,3172.00
2018-07-19T04:14:46.411Z,3260.00
2018-07-19T04:15:46.600Z,3352.00
2018-07-19T04:16:46.782Z,3448.00
2018-07-19T04:17:46.999Z,3540.00
2018-07-19T04:18:47.195Z,3632.00
2018-07-19T04:19:47.390Z,3728.00
2018-07-19T04:20:47.583Z,3832.00
2018-07-19T04:21:47.782Z,3940.00
2018-07-19T04:22:47.972Z,4048.00
2018-07-19T04:23:48.173Z,4208.00
2018-07-19T04:24:48.363Z,4904.00
2018-07-19T04:25:48.552Z,6716.00
2018-07-19T04:26:48.752Z,8288.00
2018-07-19T04:27:48.947Z,8816.00
2018-07-19T04:28:49.133Z,9332.00
2018-07-19T04:29:49.324Z,9868.00
2018-07-19T04:30:49.536Z,10576.00
2018-07-19T04:31:49.759Z,11348.00
2018-07-19T04:32:49.966Z,11984.00
2018-07-19T04:33:50.151Z,12368.00
2018-07-19T04:34:50.351Z,12672.00
2018-07-19T04:35:50.546Z,12800.00
2018-07-19T04:36:50.757Z,12992.00
2018-07-19T04:37:50.946Z,13248.00
2018-07-19T04:38:51.156Z,13600.00
2018-07-19T04:39:51.369Z,14080.00
2018-07-19T04:40:51.583Z,14432.00
2018-07-19T04:41:51.764Z,14688.00
2018-07-19T04:42:51.976Z,14880.00
2018-07-19T04:43:52.189Z,15104.00
2018-07-19T04:44:52.397Z,15392.00
2018-07-19T04:45:52.581Z,15872.00
2018-07-19T04:46:52.794Z,16352.00
2018-07-19T04:47:52.988Z,16832.00
2018-07-19T04:48:53.186Z,17312.00
2018-07-19T04:49:53.390Z,17696.00
2018-07-19T04:50:53.589Z,18272.00
2018-07-19T04:51:53.784Z,18912.00
2018-07-19T04:52:54.013Z,19488.00
2018-07-19T04:53:54.215Z,20192.00
2018-07-19T04:54:54.423Z,20864.00
2018-07-19T04:55:54.635Z,21600.00
2018-07-19T04:56:54.872Z,22464.00
2018-07-19T04:57:55.096Z,22944.00
2018-07-19T04:58:55.291Z,23104.00
2018-07-19T04:59:55.499Z,22880.00
2018-07-19T05:00:55.693Z,22944.00
2018-07-19T05:01:55.910Z,23200.00
2018-07-19T05:02:56.112Z,23296.00
2018-07-19T05:03:56.306Z,23488.00
2018-07-19T05:04:56.564Z,24128.00
2018-07-19T05:05:56.736Z,24192.00
2018-07-19T05:06:56.922Z,23104.00
2018-07-19T05:07:57.123Z,22112.00
2018-07-19T05:08:57.315Z,22784.00
2018-07-19T05:09:57.536Z,23264.00
2018-07-19T05:10:57.717Z,24192.00
2018-07-19T05:11:57.915Z,24992.00
2018-07-19T05:12:58.127Z,25216.00
2018-07-19T05:13:58.354Z,24448.00
2018-07-19T05:14:58.542Z,24224.00
2018-07-19T05:15:58.746Z,24672.00
2018-07-19T05:16:58.951Z,27040.00
2018-07-19T05:17:59.151Z,28128.00
2018-07-19T05:18:59.367Z,28704.00
2018-07-19T05:19:59.583Z,28256.00
2018-07-19T05:20:59.777Z,27648.00
2018-07-19T05:21:59.987Z,27872.00
2018-07-19T05:23:00.249Z,28128.00
2018-07-19T05:24:00.325Z,25600.00
2018-07-19T05:25:00.521Z,23616.00
2018-07-19T05:26:00.742Z,22080.00
2018-07-19T05:27:00.950Z,22592.00
2018-07-19T05:28:01.150Z,25280.00
2018-07-19T05:29:01.367Z,26144.00
2018-07-19T05:30:01.577Z,27232.00
2018-07-19T05:31:01.774Z,28128.00
2018-07-19T05:32:01.983Z,30144.00
2018-07-19T05:33:02.196Z,30208.00
2018-07-19T05:34:02.481Z,31552.00
2018-07-19T05:35:02.580Z,32832.00
2018-07-19T05:36:02.777Z,33056.00
2018-07-19T05:37:02.980Z,32800.00
2018-07-19T05:38:03.163Z,36224.00
2018-07-19T05:39:03.374Z,37088.00
2018-07-19T05:40:03.593Z,32256.00
2018-07-19T05:41:03.794Z,31872.00
2018-07-19T05:42:04.028Z,36096.00
2018-07-19T05:43:04.213Z,37280.00
2018-07-19T05:44:04.427Z,40672.00
2018-07-19T05:45:04.625Z,39616.00
2018-07-19T05:46:04.837Z,38656.00
2018-07-19T05:47:05.034Z,38336.00
2018-07-19T05:48:05.232Z,38176.00
2018-07-19T05:49:05.424Z,37600.00
2018-07-19T05:50:05.629Z,35488.00
2018-07-19T05:51:05.844Z,35872.00
2018-07-19T05:52:06.145Z,36736.00
2018-07-19T05:53:06.201Z,33760.00
2018-07-19T05:54:06.412Z,32160.00
2018-07-19T05:55:06.616Z,32288.00
2018-07-19T05:56:06.808Z,33760.00
2018-07-19T05:57:06.997Z,34912.00
2018-07-19T05:58:07.234Z,35392.00
2018-07-19T05:59:07.408Z,35520.00
2018-07-19T06:00:07.612Z,37824.00
2018-07-19T06:01:07.804Z,39392.00
2018-07-19T06:02:08.023Z,44832.00
2018-07-19T06:03:08.278Z,47616.00
2018-07-19T06:04:08.394Z,46368.00
2018-07-19T06:05:08.573Z,44160.00
2018-07-19T06:06:08.789Z,43168.00
2018-07-19T06:07:08.967Z,44672.00
2018-07-19T06:08:09.155Z,46112.00
2018-07-19T06:09:09.353Z,49184.00
2018-07-19T06:10:09.577Z,50272.00
2018-07-19T06:11:09.785Z,49536.00
2018-07-19T06:12:10.011Z,49408.00
2018-07-19T06:13:10.204Z,49536.00
2018-07-19T06:14:10.415Z,48864.00
2018-07-19T06:15:10.632Z,48288.00
2018-07-19T06:16:10.894Z,48640.00
2018-07-19T06:17:11.061Z,51040.00
2018-07-19T06:18:11.259Z,51136.00
2018-07-19T06:19:11.474Z,49088.00
2018-07-19T06:20:11.677Z,50336.00
2018-07-19T06:21:11.903Z,49600.00
2018-07-19T06:22:12.126Z,50464.00
2018-07-19T06:23:12.339Z,49248.00
2018-07-19T06:24:12.545Z,50560.00
2018-07-19T06:25:12.763Z,52576.00
2018-07-19T06:26:12.965Z,51328.00
2018-07-19T06:27:13.165Z,53664.00
2018-07-19T06:28:13.368Z,55936.00
2018-07-19T06:29:13.565Z,56288.00
2018-07-19T06:30:13.783Z,57312.00
2018-07-19T06:31:13.981Z,58112.00
2018-07-19T06:32:14.173Z,53024.00
2018-07-19T06:33:14.389Z,49152.00
2018-07-19T06:34:14.603Z,58656.00
2018-07-19T06:35:14.802Z,60224.00
2018-07-19T06:36:15.021Z,60576.00
2018-07-19T06:37:15.221Z,60832.00
2018-07-19T06:38:15.438Z,61408.00
2018-07-19T06:39:15.639Z,60704.00
2018-07-19T06:40:15.848Z,59680.00
2018-07-19T06:41:16.182Z,61824.00
2018-07-19T06:42:16.284Z,60288.00
2018-07-19T06:43:16.474Z,57728.00
2018-07-19T06:44:16.691Z,56672.00
2018-07-19T06:45:16.895Z,55936.00
2018-07-19T06:46:17.113Z,55808.00
2018-07-19T06:47:17.342Z,54688.00
2018-07-19T06:48:17.544Z,55104.00
2018-07-19T06:49:17.781Z,52064.00
2018-07-19T06:50:17.954Z,53856.00
2018-07-19T06:51:18.152Z,55552.00
2018-07-19T06:52:18.365Z,58464.00
2018-07-19T06:53:18.585Z,57504.00
2018-07-19T06:54:18.796Z,55360.00
2018-07-19T06:55:19.015Z,55840.00
2018-07-19T06:56:19.210Z,54304.00
2018-07-19T06:57:19.408Z,52544.00
2018-07-19T06:58:19.616Z,53984.00
2018-07-19T06:59:19.814Z,54752.00
2018-07-19T07:00:20.002Z,55008.00
2018-07-19T07:01:20.209Z,56256.00
2018-07-19T07:02:20.434Z,57408.00
2018-07-19T07:03:20.651Z,58016.00
2018-07-19T07:04:20.840Z,60352.00
2018-07-19T07:05:21.039Z,62048.00
2018-07-19T07:06:21.224Z,61760.00
2018-07-19T07:07:21.418Z,61184.00
2018-07-19T07:08:21.616Z,60960.00
2018-07-19T07:09:21.811Z,61632.00
2018-07-19T07:10:22.007Z,61792.00
2018-07-19T07:11:22.227Z,61728.00
2018-07-19T07:12:22.451Z,63232.00
2018-07-19T07:13:22.659Z,63584.00
2018-07-19T07:14:22.876Z,63936.00
2018-07-19T07:15:23.084Z,64064.00
2018-07-19T07:16:23.307Z,63936.00
2018-07-19T07:17:23.528Z,63232.00
2018-07-19T07:18:23.743Z,63488.00
2018-07-19T07:19:23.958Z,64736.00
2018-07-19T07:20:24.182Z,65312.00
2018-07-19T07:21:24.388Z,64928.00
2018-07-19T07:22:24.614Z,64544.00
2018-07-19T07:23:24.804Z,64544.00
2018-07-19T07:24:25.010Z,64448.00
2018-07-19T07:25:25.219Z,64896.00
2018-07-19T07:26:25.423Z,64608.00
2018-07-19T07:27:25.655Z,66784.00
2018-07-19T07:28:25.968Z,68320.00
2018-07-19T07:29:26.096Z,68864.00
2018-07-19T07:30:26.355Z,69472.00
2018-07-19T07:31:26.511Z,69792.00
2018-07-19T07:32:26.748Z,70656.00
2018-07-19T07:33:26.947Z,72288.00
2018-07-19T07:34:27.155Z,73792.00
2018-07-19T07:35:27.371Z,74880.00
2018-07-19T07:36:27.578Z,76288.00
2018-07-19T07:37:27.770Z,75744.00
2018-07-19T07:38:27.973Z,76000.00
2018-07-19T07:39:28.195Z,75456.00
2018-07-19T07:40:28.424Z,75072.00
2018-07-19T07:41:28.644Z,74432.00
2018-07-19T07:42:28.847Z,74304.00
2018-07-19T07:43:29.038Z,74752.00
2018-07-19T07:44:29.254Z,75168.00
2018-07-19T07:45:29.462Z,74624.00
2018-07-19T07:46:29.682Z,74368.00
2018-07-19T07:47:29.877Z,74016.00
2018-07-19T07:48:30.115Z,73856.00
2018-07-19T07:49:30.345Z,74816.00
2018-07-19T07:50:30.567Z,75712.00
2018-07-19T07:51:30.830Z,76768.00
2018-07-19T07:52:30.944Z,76448.00
2018-07-19T07:53:31.151Z,78112.00
2018-07-19T07:54:31.369Z,78144.00
2018-07-19T07:55:31.619Z,77984.00
2018-07-19T07:56:31.825Z,77056.00
2018-07-19T07:57:32.063Z,75616.00
2018-07-19T07:58:32.300Z,75104.00
2018-07-19T07:59:32.525Z,74432.00
2018-07-19T08:00:32.779Z,75072.00
2018-07-19T08:01:32.991Z,75936.00
2018-07-19T08:02:33.223Z,77408.00
2018-07-19T08:03:33.451Z,78912.00
2018-07-19T08:04:33.674Z,78432.00
2018-07-19T08:05:33.907Z,77088.00
2018-07-19T08:06:34.135Z,74464.00
2018-07-19T08:07:34.383Z,73632.00
2018-07-19T08:08:34.614Z,73216.00
2018-07-19T08:09:34.841Z,74944.00
2018-07-19T08:10:35.073Z,77952.00
2018-07-19T08:11:35.218Z,80416.00
2018-07-19T08:12:35.458Z,83008.00
2018-07-19T08:13:35.663Z,84704.00
2018-07-19T08:14:35.881Z,85120.00
2018-07-19T08:15:36.327Z,83872.00
2018-07-19T08:16:36.326Z,82784.00
2018-07-19T08:17:36.549Z,81568.00
2018-07-19T08:18:36.764Z,80448.00
2018-07-19T08:19:37.039Z,81152.00
2018-07-19T08:20:37.275Z,81152.00
2018-07-19T08:21:37.464Z,81120.00
2018-07-19T08:22:37.679Z,82016.00
2018-07-19T08:23:37.890Z,82720.00
2018-07-19T08:24:38.104Z,83264.00
2018-07-19T08:25:38.324Z,82624.00
2018-07-19T08:26:38.554Z,82624.00
2018-07-19T08:27:38.768Z,82720.00
2018-07-19T08:28:38.981Z,82208.00
2018-07-19T08:29:39.204Z,81792.00
2018-07-19T08:30:39.418Z,80768.00
2018-07-19T08:31:39.630Z,80640.00
2018-07-19T08:32:39.832Z,81248.00
2018-07-19T08:33:40.048Z,81472.00
2018-07-19T08:34:40.286Z,81536.00
2018-07-19T08:35:40.502Z,80928.00
2018-07-19T08:36:40.724Z,79872.00
2018-07-19T08:37:40.943Z,79520.00
2018-07-19T08:38:41.149Z,79040.00
2018-07-19T08:39:41.351Z,78528.00
2018-07-19T08:40:41.564Z,77696.00
2018-07-19T08:41:41.774Z,78272.00
2018-07-19T08:42:42.098Z,77792.00
2018-07-19T08:43:42.184Z,77600.00
2018-07-19T08:44:42.395Z,78304.00
2018-07-19T08:45:42.607Z,78336.00
2018-07-19T08:46:42.818Z,77152.00
2018-07-19T08:47:43.043Z,76384.00
2018-07-19T08:48:43.267Z,75392.00
2018-07-19T08:49:43.469Z,74048.00
2018-07-19T08:50:43.669Z,73792.00
2018-07-19T08:51:43.979Z,73472.00
2018-07-19T08:52:44.104Z,72704.00
2018-07-19T08:53:44.339Z,73056.00
2018-07-19T08:54:44.553Z,72832.00
2018-07-19T08:55:44.771Z,72160.00
2018-07-19T08:56:45.008Z,71168.00
2018-07-19T08:57:45.178Z,70048.00
2018-07-19T08:58:45.385Z,70304.00
2018-07-19T08:59:45.584Z,70624.00
2018-07-19T09:00:45.789Z,71392.00
2018-07-19T09:01:45.982Z,72288.00
2018-07-19T09:02:46.196Z,72928.00
2018-07-19T09:03:46.421Z,72480.00
2018-07-19T09:04:46.636Z,71104.00
2018-07-19T09:05:46.836Z,71552.00
2018-07-19T09:06:47.064Z,72544.00
2018-07-19T09:07:47.281Z,74176.00
2018-07-19T09:08:47.561Z,75584.00
2018-07-19T09:09:47.694Z,78560.00
2018-07-19T09:10:47.922Z,81120.00
2018-07-19T09:11:48.122Z,81856.00
2018-07-19T09:12:48.333Z,81664.00
2018-07-19T09:13:48.554Z,80768.00
2018-07-19T09:14:48.767Z,79008.00
2018-07-19T09:15:49.013Z,76288.00
2018-07-19T09:16:49.231Z,74592.00
2018-07-19T09:17:49.438Z,73440.00
2018-07-19T09:18:49.666Z,72416.00
2018-07-19T09:19:49.898Z,73024.00
2018-07-19T09:20:50.193Z,73664.00
2018-07-19T09:21:50.325Z,74944.00
2018-07-19T09:22:50.557Z,76160.00
2018-07-19T09:23:50.743Z,77696.00
2018-07-19T09:24:50.952Z,78752.00
2018-07-19T09:25:51.148Z,79168.00
2018-07-19T09:26:51.382Z,79232.00
2018-07-19T09:27:51.600Z,78240.00
2018-07-19T09:28:51.823Z,76544.00
2018-07-19T09:29:52.046Z,74432.00
2018-07-19T09:30:52.262Z,72128.00
2018-07-19T09:31:52.490Z,70656.00
2018-07-19T09:32:52.728Z,69344.00
2018-07-19T09:33:52.933Z,69600.00
2018-07-19T09:34:53.145Z,70240.00
2018-07-19T09:35:53.347Z,71840.00
2018-07-19T09:36:53.543Z,73056.00
2018-07-19T09:37:53.768Z,74016.00
2018-07-19T09:38:53.987Z,74656.00
2018-07-19T09:39:54.238Z,74752.00
2018-07-19T09:40:54.443Z,75264.00
2018-07-19T09:41:54.698Z,75264.00
2018-07-19T09:42:54.885Z,75424.00
2018-07-19T09:43:55.109Z,76064.00
2018-07-19T09:44:55.320Z,76576.00
2018-07-19T09:45:55.532Z,77056.00
2018-07-19T09:46:55.742Z,77792.00
2018-07-19T09:47:55.944Z,77984.00
2018-07-19T09:48:56.219Z,76448.00
2018-07-19T09:49:56.387Z,74336.00
2018-07-19T09:50:56.598Z,71840.00
2018-07-19T09:51:56.809Z,68928.00
2018-07-19T09:52:57.017Z,67840.00
2018-07-19T09:53:57.225Z,67872.00
2018-07-19T09:54:57.429Z,69696.00
2018-07-19T09:55:57.717Z,71328.00
2018-07-19T09:56:57.852Z,72576.00
2018-07-19T09:57:58.071Z,72320.00
2018-07-19T09:58:58.305Z,73568.00
2018-07-19T09:59:58.523Z,72384.00
2018-07-19T10:00:58.743Z,72480.00
2018-07-19T10:01:58.966Z,71552.00
2018-07-19T10:02:59.174Z,70752.00
2018-07-19T10:03:59.392Z,70208.00
2018-07-19T10:04:59.605Z,68800.00
2018-07-19T10:05:59.820Z,68256.00
2018-07-19T10:07:00.133Z,67584.00
2018-07-19T10:08:00.221Z,67040.00
2018-07-19T10:09:00.445Z,66752.00
2018-07-19T10:10:00.693Z,66272.00
2018-07-19T10:11:00.873Z,66016.00
2018-07-19T10:12:01.150Z,65312.00
2018-07-19T10:13:01.315Z,64480.00
2018-07-19T10:14:01.535Z,63648.00
2018-07-19T10:15:01.733Z,63200.00
2018-07-19T10:16:01.963Z,63168.00
2018-07-19T10:17:02.157Z,62912.00
2018-07-19T10:18:02.367Z,62720.00
2018-07-19T10:19:02.587Z,62080.00
2018-07-19T10:20:02.801Z,61664.00
2018-07-19T10:21:03.007Z,61344.00
2018-07-19T10:22:03.225Z,60256.00
2018-07-19T10:23:03.444Z,59360.00
2018-07-19T10:24:03.642Z,57376.00
2018-07-19T10:25:03.855Z,56800.00
2018-07-19T10:26:04.069Z,56576.00
2018-07-19T10:27:04.278Z,56768.00
2018-07-19T10:28:04.491Z,55968.00
2018-07-19T10:29:04.722Z,56160.00
2018-07-19T10:30:04.923Z,54880.00
2018-07-19T10:31:05.151Z,53504.00
2018-07-19T10:32:05.440Z,52448.00
2018-07-19T10:33:05.571Z,52448.00
2018-07-19T10:34:05.820Z,53248.00
2018-07-19T10:35:05.980Z,54432.00
2018-07-19T10:36:06.178Z,54816.00
2018-07-19T10:37:06.401Z,54304.00
2018-07-19T10:38:06.642Z,53792.00
2018-07-19T10:39:06.864Z,52288.00
2018-07-19T10:40:07.068Z,43584.00
2018-07-19T10:41:07.264Z,30112.00
2018-07-19T10:42:07.463Z,18432.00
2018-07-19T10:43:07.693Z,15188.00
2018-07-19T10:44:07.854Z,15092.00
2018-07-19T10:45:08.073Z,15036.00
2018-07-19T10:46:08.307Z,14964.00
2018-07-19T10:47:08.505Z,14912.00
2018-07-19T10:48:08.723Z,14844.00
2018-07-19T10:49:08.931Z,14792.00
2018-07-19T10:50:09.137Z,14744.00
2018-07-19T10:51:09.336Z,14704.00
2018-07-19T10:52:09.555Z,14648.00
2018-07-19T10:53:09.770Z,14656.00
2018-07-19T10:54:09.979Z,14612.00
2018-07-19T10:55:10.186Z,14572.00
2018-07-19T10:56:10.434Z,14520.00
2018-07-19T10:57:10.642Z,14444.00
2018-07-19T10:58:10.868Z,14380.00
2018-07-19T10:59:11.069Z,14244.00
2018-07-19T11:00:11.294Z,14140.00
2018-07-19T11:01:11.488Z,14016.00
2018-07-19T11:02:11.699Z,13884.00
2018-07-19T11:03:11.916Z,13752.00
2018-07-19T11:04:12.124Z,13628.00
2018-07-19T11:05:12.366Z,13488.00
2018-07-19T11:06:12.577Z,13388.00
2018-07-19T11:07:12.795Z,13296.00
2018-07-19T11:08:12.987Z,13192.00
2018-07-19T11:09:13.192Z,13076.00
2018-07-19T11:10:13.404Z,12976.00
2018-07-19T11:11:13.621Z,12872.00
2018-07-19T11:12:13.836Z,12776.00
2018-07-19T11:13:14.056Z,12712.00
2018-07-19T11:14:14.273Z,12620.00
2018-07-19T11:15:14.472Z,12540.00
2018-07-19T11:16:14.686Z,12468.00
2018-07-19T11:17:14.900Z,12396.00
2018-07-19T11:18:15.098Z,12316.00
2018-07-19T11:19:15.317Z,12232.00
2018-07-19T11:20:15.532Z,12156.00
2018-07-19T11:21:15.748Z,12076.00
2018-07-19T11:22:15.958Z,12016.00
2018-07-19T11:23:16.191Z,11948.00
2018-07-19T11:24:16.406Z,11900.00
2018-07-19T11:25:16.622Z,11820.00
2018-07-19T11:26:16.822Z,11784.00
2018-07-19T11:27:17.037Z,11724.00
2018-07-19T11:28:17.224Z,11644.00
2018-07-19T11:29:17.423Z,11592.00
2018-07-19T11:30:17.633Z,11556.00
2018-07-19T11:31:17.832Z,11540.00
2018-07-19T11:32:18.125Z,11488.00
2018-07-19T11:33:18.274Z,11468.00
2018-07-19T11:34:18.472Z,11452.00
2018-07-19T11:35:18.755Z,11428.00
2018-07-19T11:36:18.912Z,11408.00
2018-07-19T11:37:19.120Z,11384.00
2018-07-19T11:38:19.323Z,11380.00
2018-07-19T11:39:19.534Z,11328.00
2018-07-19T11:40:19.755Z,11316.00
2018-07-19T11:41:19.949Z,11300.00
2018-07-19T11:42:20.172Z,11296.00
2018-07-19T11:43:20.384Z,11276.00
2018-07-19T11:44:20.580Z,11240.00
2018-07-19T11:45:20.798Z,11216.00
2018-07-19T11:46:20.988Z,11192.00
2018-07-19T11:47:21.182Z,11172.00
2018-07-19T11:48:21.390Z,11144.00
2018-07-19T11:49:21.612Z,11108.00
2018-07-19T11:50:21.835Z,11052.00
2018-07-19T11:51:22.027Z,11016.00
2018-07-19T11:52:22.246Z,10972.00
2018-07-19T11:53:22.454Z,10948.00
2018-07-19T11:54:22.661Z,10928.00
2018-07-19T11:55:22.861Z,10904.00
2018-07-19T11:56:23.083Z,10880.00
2018-07-19T11:58:54.926Z,10784.00
2018-07-19T11:59:55.107Z,10756.00
2018-07-19T12:00:55.329Z,10740.00
2018-07-19T12:01:55.532Z,10688.00
2018-07-19T12:02:55.744Z,10644.00
2018-07-19T12:05:27.915Z,10552.00
2018-07-19T12:06:28.098Z,10516.00
2018-07-19T12:07:28.319Z,10532.00
2018-07-19T12:08:28.521Z,10500.00
2018-07-19T12:09:28.744Z,10432.00
2018-07-19T12:10:28.936Z,10428.00
2018-07-19T12:11:29.151Z,10420.00
2018-07-19T12:12:29.366Z,10388.00
2018-07-19T12:13:29.563Z,10352.00
2018-07-19T12:14:29.759Z,10316.00
2018-07-19T12:15:30.059Z,10276.00